sensor_id;sensor_type;location;lat;lon;timestamp;temperature;humidity
52034;DHT22;38045;52.988;6.536;2023-04-24T00:01:54;10.70;99.90
52034;DHT22;38045;52.988;6.536;2023-04-24T00:04:20;10.60;99.90
52034;DHT22;38045;52.988;6.536;2023-04-24T00:06:46;10.60;99.90
52034;DHT22;38045;52.988;6.536;2023-04-24T00:09:14;10.60;99.90
52034;DHT22;38045;52.988;6.536;2023-04-24T00:11:41;10.50;99.90
52034;DHT22;38045;52.988;6.536;2023-04-24T00:14:06;10.50;99.90
52034;DHT22;38045;52.988;6.536;2023-04-24T00:16:32;10.50;99.90
52034;DHT22;38045;52.988;6.536;2023-04-24T00:18:57;10.40;99.90
52034;DHT22;38045;52.988;6.536;2023-04-24T00:21:23;10.40;99.90
52034;DHT22;38045;52.988;6.536;2023-04-24T00:23:50;10.40;99.90
52034;DHT22;38045;52.988;6.536;2023-04-24T00:26:16;10.30;99.90
52034;DHT22;38045;52.988;6.536;2023-04-24T00:28:42;10.30;99.90
52034;DHT22;38045;52.988;6.536;2023-04-24T00:31:07;10.30;99.90
52034;DHT22;38045;52.988;6.536;2023-04-24T00:33:33;10.20;99.90
52034;DHT22;38045;52.988;6.536;2023-04-24T00:35:59;10.20;99.90
52034;DHT22;38045;52.988;6.536;2023-04-24T00:38:25;10.20;99.90
52034;DHT22;38045;52.988;6.536;2023-04-24T00:40:50;10.20;99.90
52034;DHT22;38045;52.988;6.536;2023-04-24T00:43:16;10.20;99.90
52034;DHT22;38045;52.988;6.536;2023-04-24T00:45:42;10.10;99.90
52034;DHT22;38045;52.988;6.536;2023-04-24T00:48:09;10.10;99.90
52034;DHT22;38045;52.988;6.536;2023-04-24T00:50:36;10.10;99.90
52034;DHT22;38045;52.988;6.536;2023-04-24T00:53:02;10.10;99.90
52034;DHT22;38045;52.988;6.536;2023-04-24T00:55:28;10.10;99.90
52034;DHT22;38045;52.988;6.536;2023-04-24T00:57:54;10.10;99.90
52034;DHT22;38045;52.988;6.536;2023-04-24T01:00:20;10.10;99.90
52034;DHT22;38045;52.988;6.536;2023-04-24T01:02:46;10.10;99.90
52034;DHT22;38045;52.988;6.536;2023-04-24T01:05:13;10.10;99.90
52034;DHT22;38045;52.988;6.536;2023-04-24T01:07:41;10.10;99.90
52034;DHT22;38045;52.988;6.536;2023-04-24T01:10:09;10.00;99.90
52034;DHT22;38045;52.988;6.536;2023-04-24T01:12:35;10.00;99.90
52034;DHT22;38045;52.988;6.536;2023-04-24T01:15:01;10.00;99.90
52034;DHT22;38045;52.988;6.536;2023-04-24T01:17:26;10.00;99.90
52034;DHT22;38045;52.988;6.536;2023-04-24T01:19:52;10.10;99.90
52034;DHT22;38045;52.988;6.536;2023-04-24T01:22:22;10.00;99.90
52034;DHT22;38045;52.988;6.536;2023-04-24T01:24:48;10.00;99.90
52034;DHT22;38045;52.988;6.536;2023-04-24T01:27:14;10.00;99.90
52034;DHT22;38045;52.988;6.536;2023-04-24T01:29:40;10.00;99.90
52034;DHT22;38045;52.988;6.536;2023-04-24T01:32:06;10.00;99.90
52034;DHT22;38045;52.988;6.536;2023-04-24T01:34:32;10.00;99.90
52034;DHT22;38045;52.988;6.536;2023-04-24T01:36:58;10.00;99.90
52034;DHT22;38045;52.988;6.536;2023-04-24T01:39:24;10.00;99.90
52034;DHT22;38045;52.988;6.536;2023-04-24T01:41:51;10.00;99.90
52034;DHT22;38045;52.988;6.536;2023-04-24T01:44:18;10.00;99.90
52034;DHT22;38045;52.988;6.536;2023-04-24T01:46:44;10.00;99.90
52034;DHT22;38045;52.988;6.536;2023-04-24T01:49:10;10.00;99.90
52034;DHT22;38045;52.988;6.536;2023-04-24T01:51:36;10.00;99.90
52034;DHT22;38045;52.988;6.536;2023-04-24T01:54:02;10.00;99.90
52034;DHT22;38045;52.988;6.536;2023-04-24T01:56:29;10.00;99.90
52034;DHT22;38045;52.988;6.536;2023-04-24T01:58:56;10.00;99.90
52034;DHT22;38045;52.988;6.536;2023-04-24T02:01:23;10.00;99.90
52034;DHT22;38045;52.988;6.536;2023-04-24T02:03:50;10.00;99.90
52034;DHT22;38045;52.988;6.536;2023-04-24T02:06:15;10.00;99.90
52034;DHT22;38045;52.988;6.536;2023-04-24T02:08:41;10.00;99.90
52034;DHT22;38045;52.988;6.536;2023-04-24T02:11:09;10.00;99.90
52034;DHT22;38045;52.988;6.536;2023-04-24T02:13:35;10.00;99.90
52034;DHT22;38045;52.988;6.536;2023-04-24T02:16:00;10.00;99.90
52034;DHT22;38045;52.988;6.536;2023-04-24T02:18:26;10.00;99.90
52034;DHT22;38045;52.988;6.536;2023-04-24T02:20:52;10.10;99.90
52034;DHT22;38045;52.988;6.536;2023-04-24T02:23:17;10.00;99.90
52034;DHT22;38045;52.988;6.536;2023-04-24T02:25:43;10.00;99.90
52034;DHT22;38045;52.988;6.536;2023-04-24T02:28:09;10.10;99.90
52034;DHT22;38045;52.988;6.536;2023-04-24T02:30:34;10.10;99.90
52034;DHT22;38045;52.988;6.536;2023-04-24T02:33:00;10.10;99.90
52034;DHT22;38045;52.988;6.536;2023-04-24T02:35:25;10.00;99.90
52034;DHT22;38045;52.988;6.536;2023-04-24T02:37:51;10.00;99.90
52034;DHT22;38045;52.988;6.536;2023-04-24T02:40:16;10.00;99.90
52034;DHT22;38045;52.988;6.536;2023-04-24T02:42:42;10.00;99.90
52034;DHT22;38045;52.988;6.536;2023-04-24T02:45:08;10.00;99.90
52034;DHT22;38045;52.988;6.536;2023-04-24T02:47:34;10.00;99.90
52034;DHT22;38045;52.988;6.536;2023-04-24T02:49:59;9.90;99.90
52034;DHT22;38045;52.988;6.536;2023-04-24T02:52:25;9.90;99.90
52034;DHT22;38045;52.988;6.536;2023-04-24T02:54:50;9.90;99.90
52034;DHT22;38045;52.988;6.536;2023-04-24T02:57:16;9.80;99.90
52034;DHT22;38045;52.988;6.536;2023-04-24T02:59:42;9.80;99.90
52034;DHT22;38045;52.988;6.536;2023-04-24T03:02:07;9.80;99.90
52034;DHT22;38045;52.988;6.536;2023-04-24T03:04:33;9.80;99.90
52034;DHT22;38045;52.988;6.536;2023-04-24T03:06:58;9.80;99.90
52034;DHT22;38045;52.988;6.536;2023-04-24T03:09:24;9.70;99.90
52034;DHT22;38045;52.988;6.536;2023-04-24T03:11:50;9.70;99.90
52034;DHT22;38045;52.988;6.536;2023-04-24T03:14:16;9.70;99.90
52034;DHT22;38045;52.988;6.536;2023-04-24T03:16:42;9.70;99.90
52034;DHT22;38045;52.988;6.536;2023-04-24T03:19:07;9.70;99.90
52034;DHT22;38045;52.988;6.536;2023-04-24T03:21:33;9.70;99.90
52034;DHT22;38045;52.988;6.536;2023-04-24T03:23:59;9.70;99.90
52034;DHT22;38045;52.988;6.536;2023-04-24T03:26:24;9.70;99.90
52034;DHT22;38045;52.988;6.536;2023-04-24T03:28:50;9.70;99.90
52034;DHT22;38045;52.988;6.536;2023-04-24T03:31:16;9.70;99.90
52034;DHT22;38045;52.988;6.536;2023-04-24T03:33:42;9.70;99.90
52034;DHT22;38045;52.988;6.536;2023-04-24T03:36:07;9.60;99.90
52034;DHT22;38045;52.988;6.536;2023-04-24T03:38:33;9.60;99.90
52034;DHT22;38045;52.988;6.536;2023-04-24T03:40:59;9.60;99.90
52034;DHT22;38045;52.988;6.536;2023-04-24T03:43:24;9.60;99.90
52034;DHT22;38045;52.988;6.536;2023-04-24T03:45:50;9.60;99.90
52034;DHT22;38045;52.988;6.536;2023-04-24T03:48:16;9.60;99.90
52034;DHT22;38045;52.988;6.536;2023-04-24T03:50:41;9.60;99.90
52034;DHT22;38045;52.988;6.536;2023-04-24T03:53:07;9.60;99.90
52034;DHT22;38045;52.988;6.536;2023-04-24T03:55:33;9.60;99.90
52034;DHT22;38045;52.988;6.536;2023-04-24T03:57:59;9.50;99.90
52034;DHT22;38045;52.988;6.536;2023-04-24T04:00:24;9.60;99.90
52034;DHT22;38045;52.988;6.536;2023-04-24T04:02:51;9.50;99.90
52034;DHT22;38045;52.988;6.536;2023-04-24T04:05:16;9.50;99.90
52034;DHT22;38045;52.988;6.536;2023-04-24T04:07:42;9.60;99.90
52034;DHT22;38045;52.988;6.536;2023-04-24T04:10:08;9.50;99.90
52034;DHT22;38045;52.988;6.536;2023-04-24T04:12:33;9.50;99.90
52034;DHT22;38045;52.988;6.536;2023-04-24T04:14:59;9.50;99.90
52034;DHT22;38045;52.988;6.536;2023-04-24T04:17:25;9.50;99.90
52034;DHT22;38045;52.988;6.536;2023-04-24T04:19:51;9.50;99.90
52034;DHT22;38045;52.988;6.536;2023-04-24T04:22:16;9.50;99.90
52034;DHT22;38045;52.988;6.536;2023-04-24T04:24:42;9.50;99.90
52034;DHT22;38045;52.988;6.536;2023-04-24T04:27:08;9.60;99.90
52034;DHT22;38045;52.988;6.536;2023-04-24T04:29:34;9.60;99.90
52034;DHT22;38045;52.988;6.536;2023-04-24T04:32:00;9.60;99.90
52034;DHT22;38045;52.988;6.536;2023-04-24T04:34:26;9.60;99.90
52034;DHT22;38045;52.988;6.536;2023-04-24T04:36:52;9.60;99.90
52034;DHT22;38045;52.988;6.536;2023-04-24T04:39:18;9.60;99.90
52034;DHT22;38045;52.988;6.536;2023-04-24T04:41:44;9.60;99.90
52034;DHT22;38045;52.988;6.536;2023-04-24T04:44:09;9.60;99.90
52034;DHT22;38045;52.988;6.536;2023-04-24T04:46:35;9.60;99.90
52034;DHT22;38045;52.988;6.536;2023-04-24T04:49:02;9.60;99.90
52034;DHT22;38045;52.988;6.536;2023-04-24T04:51:28;9.60;99.90
52034;DHT22;38045;52.988;6.536;2023-04-24T04:53:54;9.50;99.90
52034;DHT22;38045;52.988;6.536;2023-04-24T04:56:19;9.50;99.90
52034;DHT22;38045;52.988;6.536;2023-04-24T04:58:45;9.40;99.90
52034;DHT22;38045;52.988;6.536;2023-04-24T05:01:10;9.40;99.90
52034;DHT22;38045;52.988;6.536;2023-04-24T05:03:36;9.30;99.90
52034;DHT22;38045;52.988;6.536;2023-04-24T05:06:02;9.30;99.90
52034;DHT22;38045;52.988;6.536;2023-04-24T05:08:27;9.30;99.90
52034;DHT22;38045;52.988;6.536;2023-04-24T05:10:54;9.30;99.90
52034;DHT22;38045;52.988;6.536;2023-04-24T05:13:20;9.20;99.90
52034;DHT22;38045;52.988;6.536;2023-04-24T05:15:46;9.20;99.90
52034;DHT22;38045;52.988;6.536;2023-04-24T05:18:11;9.20;99.90
52034;DHT22;38045;52.988;6.536;2023-04-24T05:20:37;9.20;99.90
52034;DHT22;38045;52.988;6.536;2023-04-24T05:23:02;9.30;99.90
52034;DHT22;38045;52.988;6.536;2023-04-24T05:25:28;9.20;99.90
52034;DHT22;38045;52.988;6.536;2023-04-24T05:27:54;9.20;99.90
52034;DHT22;38045;52.988;6.536;2023-04-24T05:30:20;9.20;99.90
52034;DHT22;38045;52.988;6.536;2023-04-24T05:32:45;9.20;99.90
52034;DHT22;38045;52.988;6.536;2023-04-24T05:35:11;9.20;99.90
52034;DHT22;38045;52.988;6.536;2023-04-24T05:37:37;9.20;99.90
52034;DHT22;38045;52.988;6.536;2023-04-24T05:40:03;9.20;99.90
52034;DHT22;38045;52.988;6.536;2023-04-24T05:42:31;9.20;99.90
52034;DHT22;38045;52.988;6.536;2023-04-24T05:44:56;9.20;99.90
52034;DHT22;38045;52.988;6.536;2023-04-24T05:47:22;9.30;99.90
52034;DHT22;38045;52.988;6.536;2023-04-24T05:49:48;9.40;99.90
52034;DHT22;38045;52.988;6.536;2023-04-24T05:52:13;9.50;99.90
52034;DHT22;38045;52.988;6.536;2023-04-24T05:54:39;9.50;99.90
52034;DHT22;38045;52.988;6.536;2023-04-24T05:57:05;9.50;99.90
52034;DHT22;38045;52.988;6.536;2023-04-24T05:59:39;9.60;99.90
52034;DHT22;38045;52.988;6.536;2023-04-24T06:02:04;9.70;99.90
52034;DHT22;38045;52.988;6.536;2023-04-24T06:04:32;9.70;99.90
52034;DHT22;38045;52.988;6.536;2023-04-24T06:06:58;9.70;99.90
52034;DHT22;38045;52.988;6.536;2023-04-24T06:09:25;9.80;99.90
52034;DHT22;38045;52.988;6.536;2023-04-24T06:11:50;9.80;99.90
52034;DHT22;38045;52.988;6.536;2023-04-24T06:14:19;9.80;99.90
52034;DHT22;38045;52.988;6.536;2023-04-24T06:16:45;9.90;99.90
52034;DHT22;38045;52.988;6.536;2023-04-24T06:19:11;9.90;99.90
52034;DHT22;38045;52.988;6.536;2023-04-24T06:21:36;9.90;99.90
52034;DHT22;38045;52.988;6.536;2023-04-24T06:24:02;9.90;99.90
52034;DHT22;38045;52.988;6.536;2023-04-24T06:26:29;9.90;99.90
52034;DHT22;38045;52.988;6.536;2023-04-24T06:28:55;9.90;99.90
52034;DHT22;38045;52.988;6.536;2023-04-24T06:31:21;9.90;99.90
52034;DHT22;38045;52.988;6.536;2023-04-24T06:33:48;9.80;99.90
52034;DHT22;38045;52.988;6.536;2023-04-24T06:36:14;9.80;99.90
52034;DHT22;38045;52.988;6.536;2023-04-24T06:38:41;9.80;99.90
52034;DHT22;38045;52.988;6.536;2023-04-24T06:41:07;9.80;99.90
52034;DHT22;38045;52.988;6.536;2023-04-24T06:43:33;9.90;99.90
52034;DHT22;38045;52.988;6.536;2023-04-24T06:45:59;9.90;99.90
52034;DHT22;38045;52.988;6.536;2023-04-24T06:48:25;9.90;99.90
52034;DHT22;38045;52.988;6.536;2023-04-24T06:50:51;9.90;99.90
52034;DHT22;38045;52.988;6.536;2023-04-24T06:53:17;9.90;99.90
52034;DHT22;38045;52.988;6.536;2023-04-24T06:55:43;9.90;99.90
52034;DHT22;38045;52.988;6.536;2023-04-24T06:58:10;9.90;99.90
52034;DHT22;38045;52.988;6.536;2023-04-24T07:00:36;9.90;99.90
52034;DHT22;38045;52.988;6.536;2023-04-24T07:03:02;9.90;99.90
52034;DHT22;38045;52.988;6.536;2023-04-24T07:05:28;9.80;99.90
52034;DHT22;38045;52.988;6.536;2023-04-24T07:07:53;9.80;99.90
52034;DHT22;38045;52.988;6.536;2023-04-24T07:10:19;9.90;99.90
52034;DHT22;38045;52.988;6.536;2023-04-24T07:12:45;9.90;99.90
52034;DHT22;38045;52.988;6.536;2023-04-24T07:15:12;9.90;99.90
52034;DHT22;38045;52.988;6.536;2023-04-24T07:17:37;9.90;99.90
52034;DHT22;38045;52.988;6.536;2023-04-24T07:20:09;9.90;99.90
52034;DHT22;38045;52.988;6.536;2023-04-24T07:22:36;9.90;99.90
52034;DHT22;38045;52.988;6.536;2023-04-24T07:25:02;9.90;99.90
52034;DHT22;38045;52.988;6.536;2023-04-24T07:27:28;9.90;99.90
52034;DHT22;38045;52.988;6.536;2023-04-24T07:29:54;9.90;99.90
52034;DHT22;38045;52.988;6.536;2023-04-24T07:32:19;9.90;99.90
52034;DHT22;38045;52.988;6.536;2023-04-24T07:34:45;9.90;99.90
52034;DHT22;38045;52.988;6.536;2023-04-24T07:37:11;9.90;99.90
52034;DHT22;38045;52.988;6.536;2023-04-24T07:39:37;9.80;99.90
52034;DHT22;38045;52.988;6.536;2023-04-24T07:42:02;9.80;99.90
52034;DHT22;38045;52.988;6.536;2023-04-24T07:44:28;9.80;99.90
52034;DHT22;38045;52.988;6.536;2023-04-24T07:46:55;9.80;99.90
52034;DHT22;38045;52.988;6.536;2023-04-24T07:49:21;9.80;99.90
52034;DHT22;38045;52.988;6.536;2023-04-24T07:51:46;9.70;99.90
52034;DHT22;38045;52.988;6.536;2023-04-24T07:54:12;9.70;99.90
52034;DHT22;38045;52.988;6.536;2023-04-24T07:56:38;9.70;99.90
52034;DHT22;38045;52.988;6.536;2023-04-24T07:59:05;9.70;99.90
52034;DHT22;38045;52.988;6.536;2023-04-24T08:01:30;9.60;99.90
52034;DHT22;38045;52.988;6.536;2023-04-24T08:03:56;9.70;99.90
52034;DHT22;38045;52.988;6.536;2023-04-24T08:06:22;9.60;99.90
52034;DHT22;38045;52.988;6.536;2023-04-24T08:08:48;9.60;99.90
52034;DHT22;38045;52.988;6.536;2023-04-24T08:11:13;9.60;99.90
52034;DHT22;38045;52.988;6.536;2023-04-24T08:13:39;9.60;99.90
52034;DHT22;38045;52.988;6.536;2023-04-24T08:16:05;9.60;99.90
52034;DHT22;38045;52.988;6.536;2023-04-24T08:18:30;9.60;99.90
52034;DHT22;38045;52.988;6.536;2023-04-24T08:20:56;9.60;99.90
52034;DHT22;38045;52.988;6.536;2023-04-24T08:23:26;9.60;99.90
52034;DHT22;38045;52.988;6.536;2023-04-24T08:25:52;9.40;99.90
52034;DHT22;38045;52.988;6.536;2023-04-24T08:28:17;9.40;99.90
52034;DHT22;38045;52.988;6.536;2023-04-24T08:30:46;9.40;99.90
52034;DHT22;38045;52.988;6.536;2023-04-24T08:33:13;9.30;99.90
52034;DHT22;38045;52.988;6.536;2023-04-24T08:35:39;9.30;99.90
52034;DHT22;38045;52.988;6.536;2023-04-24T08:38:04;9.30;99.90
52034;DHT22;38045;52.988;6.536;2023-04-24T08:40:34;9.30;99.90
52034;DHT22;38045;52.988;6.536;2023-04-24T08:42:59;9.20;99.90
52034;DHT22;38045;52.988;6.536;2023-04-24T08:45:25;9.20;99.90
52034;DHT22;38045;52.988;6.536;2023-04-24T08:47:53;9.20;99.90
52034;DHT22;38045;52.988;6.536;2023-04-24T08:50:20;9.20;99.90
52034;DHT22;38045;52.988;6.536;2023-04-24T08:52:48;9.20;99.90
52034;DHT22;38045;52.988;6.536;2023-04-24T08:55:14;9.20;99.90
52034;DHT22;38045;52.988;6.536;2023-04-24T08:57:42;9.10;99.90
52034;DHT22;38045;52.988;6.536;2023-04-24T09:00:10;9.20;99.90
52034;DHT22;38045;52.988;6.536;2023-04-24T09:02:36;9.10;99.90
52034;DHT22;38045;52.988;6.536;2023-04-24T09:05:05;9.10;99.90
52034;DHT22;38045;52.988;6.536;2023-04-24T09:07:35;9.00;99.90
52034;DHT22;38045;52.988;6.536;2023-04-24T09:10:02;9.00;99.90
52034;DHT22;38045;52.988;6.536;2023-04-24T09:12:28;9.00;99.90
52034;DHT22;38045;52.988;6.536;2023-04-24T09:14:54;8.90;99.90
52034;DHT22;38045;52.988;6.536;2023-04-24T09:17:20;9.00;99.90
52034;DHT22;38045;52.988;6.536;2023-04-24T09:19:48;9.00;99.90
52034;DHT22;38045;52.988;6.536;2023-04-24T09:22:15;9.00;99.90
52034;DHT22;38045;52.988;6.536;2023-04-24T09:24:40;9.00;99.90
52034;DHT22;38045;52.988;6.536;2023-04-24T09:27:07;9.00;99.90
52034;DHT22;38045;52.988;6.536;2023-04-24T09:29:32;9.00;99.90
52034;DHT22;38045;52.988;6.536;2023-04-24T09:31:59;9.00;99.90
52034;DHT22;38045;52.988;6.536;2023-04-24T09:34:28;9.00;99.90
52034;DHT22;38045;52.988;6.536;2023-04-24T09:36:54;9.00;99.90
52034;DHT22;38045;52.988;6.536;2023-04-24T09:39:20;9.10;99.90
52034;DHT22;38045;52.988;6.536;2023-04-24T09:41:46;9.00;99.90
52034;DHT22;38045;52.988;6.536;2023-04-24T09:46:42;9.10;99.90
52034;DHT22;38045;52.988;6.536;2023-04-24T09:49:10;9.00;99.90
52034;DHT22;38045;52.988;6.536;2023-04-24T09:51:39;9.10;99.90
52034;DHT22;38045;52.988;6.536;2023-04-24T09:54:14;9.00;99.90
52034;DHT22;38045;52.988;6.536;2023-04-24T09:56:43;9.10;99.90
52034;DHT22;38045;52.988;6.536;2023-04-24T09:59:09;9.00;99.90
52034;DHT22;38045;52.988;6.536;2023-04-24T10:01:35;9.00;99.90
52034;DHT22;38045;52.988;6.536;2023-04-24T10:04:01;9.00;99.90
52034;DHT22;38045;52.988;6.536;2023-04-24T10:06:34;9.10;99.90
52034;DHT22;38045;52.988;6.536;2023-04-24T10:09:00;9.10;99.90
52034;DHT22;38045;52.988;6.536;2023-04-24T10:11:30;9.10;99.90
52034;DHT22;38045;52.988;6.536;2023-04-24T10:13:56;9.20;99.90
52034;DHT22;38045;52.988;6.536;2023-04-24T10:16:23;9.10;99.90
52034;DHT22;38045;52.988;6.536;2023-04-24T10:18:49;9.20;99.90
52034;DHT22;38045;52.988;6.536;2023-04-24T10:21:16;9.20;99.90
52034;DHT22;38045;52.988;6.536;2023-04-24T10:23:42;9.30;99.90
52034;DHT22;38045;52.988;6.536;2023-04-24T10:26:12;9.40;99.90
52034;DHT22;38045;52.988;6.536;2023-04-24T10:28:45;9.40;99.90
52034;DHT22;38045;52.988;6.536;2023-04-24T10:31:12;9.50;99.90
52034;DHT22;38045;52.988;6.536;2023-04-24T10:33:38;9.50;99.90
52034;DHT22;38045;52.988;6.536;2023-04-24T10:36:07;9.50;99.90
52034;DHT22;38045;52.988;6.536;2023-04-24T10:38:34;9.50;99.90
52034;DHT22;38045;52.988;6.536;2023-04-24T10:41:10;9.50;99.90
52034;DHT22;38045;52.988;6.536;2023-04-24T10:43:41;9.40;99.90
52034;DHT22;38045;52.988;6.536;2023-04-24T10:46:08;9.40;99.90
52034;DHT22;38045;52.988;6.536;2023-04-24T10:48:36;9.30;99.90
52034;DHT22;38045;52.988;6.536;2023-04-24T10:51:11;9.30;99.90
52034;DHT22;38045;52.988;6.536;2023-04-24T10:53:38;9.30;99.90
52034;DHT22;38045;52.988;6.536;2023-04-24T10:56:08;9.40;99.90
52034;DHT22;38045;52.988;6.536;2023-04-24T10:58:43;9.40;99.90
52034;DHT22;38045;52.988;6.536;2023-04-24T11:03:58;9.60;99.90
52034;DHT22;38045;52.988;6.536;2023-04-24T11:06:35;9.70;99.90
52034;DHT22;38045;52.988;6.536;2023-04-24T11:09:05;9.90;99.90
52034;DHT22;38045;52.988;6.536;2023-04-24T11:11:32;10.00;99.90
52034;DHT22;38045;52.988;6.536;2023-04-24T11:18:59;9.80;99.90
52034;DHT22;38045;52.988;6.536;2023-04-24T11:21:27;9.60;99.90
52034;DHT22;38045;52.988;6.536;2023-04-24T11:23:57;9.60;99.90
52034;DHT22;38045;52.988;6.536;2023-04-24T11:26:22;9.60;99.90
52034;DHT22;38045;52.988;6.536;2023-04-24T11:29:06;9.60;99.90
52034;DHT22;38045;52.988;6.536;2023-04-24T11:31:44;9.60;99.90
52034;DHT22;38045;52.988;6.536;2023-04-24T11:34:16;9.70;99.90
52034;DHT22;38045;52.988;6.536;2023-04-24T11:36:46;9.70;99.90
52034;DHT22;38045;52.988;6.536;2023-04-24T11:39:13;9.80;99.90
52034;DHT22;38045;52.988;6.536;2023-04-24T11:41:38;9.90;99.90
52034;DHT22;38045;52.988;6.536;2023-04-24T11:44:06;9.90;99.90
52034;DHT22;38045;52.988;6.536;2023-04-24T11:46:32;10.00;99.90
52034;DHT22;38045;52.988;6.536;2023-04-24T11:48:59;10.00;99.90
52034;DHT22;38045;52.988;6.536;2023-04-24T11:51:26;9.90;99.90
52034;DHT22;38045;52.988;6.536;2023-04-24T11:53:55;9.80;99.90
52034;DHT22;38045;52.988;6.536;2023-04-24T11:56:23;9.80;99.90
52034;DHT22;38045;52.988;6.536;2023-04-24T11:58:48;9.70;99.90
52034;DHT22;38045;52.988;6.536;2023-04-24T12:01:14;9.60;99.90
52034;DHT22;38045;52.988;6.536;2023-04-24T12:03:40;9.60;99.90
52034;DHT22;38045;52.988;6.536;2023-04-24T12:06:10;9.50;99.90
52034;DHT22;38045;52.988;6.536;2023-04-24T12:08:37;9.50;99.90
52034;DHT22;38045;52.988;6.536;2023-04-24T12:11:04;9.40;99.90
52034;DHT22;38045;52.988;6.536;2023-04-24T12:13:32;9.40;99.90
52034;DHT22;38045;52.988;6.536;2023-04-24T12:15:58;9.30;99.90
52034;DHT22;38045;52.988;6.536;2023-04-24T12:18:24;9.30;99.90
52034;DHT22;38045;52.988;6.536;2023-04-24T12:20:50;9.30;99.90
52034;DHT22;38045;52.988;6.536;2023-04-24T12:23:16;9.30;99.90
52034;DHT22;38045;52.988;6.536;2023-04-24T12:25:43;9.40;99.90
52034;DHT22;38045;52.988;6.536;2023-04-24T12:28:13;9.40;99.90
52034;DHT22;38045;52.988;6.536;2023-04-24T12:30:47;9.60;99.90
52034;DHT22;38045;52.988;6.536;2023-04-24T12:33:18;9.70;99.90
52034;DHT22;38045;52.988;6.536;2023-04-24T12:35:45;9.80;99.90
52034;DHT22;38045;52.988;6.536;2023-04-24T12:38:12;9.70;99.90
52034;DHT22;38045;52.988;6.536;2023-04-24T12:40:38;9.70;99.90
52034;DHT22;38045;52.988;6.536;2023-04-24T12:43:14;9.70;99.90
52034;DHT22;38045;52.988;6.536;2023-04-24T12:45:40;9.70;99.90
52034;DHT22;38045;52.988;6.536;2023-04-24T12:48:06;9.70;99.90
52034;DHT22;38045;52.988;6.536;2023-04-24T12:50:34;9.70;99.90
52034;DHT22;38045;52.988;6.536;2023-04-24T12:53:00;9.60;99.90
52034;DHT22;38045;52.988;6.536;2023-04-24T12:55:25;9.60;99.90
52034;DHT22;38045;52.988;6.536;2023-04-24T12:57:51;9.60;99.90
52034;DHT22;38045;52.988;6.536;2023-04-24T13:00:18;9.60;99.90
52034;DHT22;38045;52.988;6.536;2023-04-24T13:02:44;9.50;99.90
52034;DHT22;38045;52.988;6.536;2023-04-24T13:05:09;9.50;99.90
52034;DHT22;38045;52.988;6.536;2023-04-24T13:07:36;9.50;99.90
52034;DHT22;38045;52.988;6.536;2023-04-24T13:10:02;9.50;99.90
52034;DHT22;38045;52.988;6.536;2023-04-24T13:12:28;9.40;99.90
52034;DHT22;38045;52.988;6.536;2023-04-24T13:14:53;9.50;99.90
52034;DHT22;38045;52.988;6.536;2023-04-24T13:17:19;9.60;99.90
52034;DHT22;38045;52.988;6.536;2023-04-24T13:19:45;9.60;99.90
52034;DHT22;38045;52.988;6.536;2023-04-24T13:22:12;9.70;99.90
52034;DHT22;38045;52.988;6.536;2023-04-24T13:24:38;9.70;99.90
52034;DHT22;38045;52.988;6.536;2023-04-24T13:27:06;9.70;99.90
52034;DHT22;38045;52.988;6.536;2023-04-24T13:29:32;9.70;99.90
52034;DHT22;38045;52.988;6.536;2023-04-24T13:31:58;9.80;99.90
52034;DHT22;38045;52.988;6.536;2023-04-24T13:34:25;9.70;99.90
52034;DHT22;38045;52.988;6.536;2023-04-24T13:36:53;9.70;99.90
52034;DHT22;38045;52.988;6.536;2023-04-24T13:39:19;9.60;99.90
52034;DHT22;38045;52.988;6.536;2023-04-24T13:41:45;9.50;99.90
52034;DHT22;38045;52.988;6.536;2023-04-24T13:44:12;9.50;99.90
52034;DHT22;38045;52.988;6.536;2023-04-24T13:46:38;9.50;99.90
52034;DHT22;38045;52.988;6.536;2023-04-24T13:49:03;9.60;99.90
52034;DHT22;38045;52.988;6.536;2023-04-24T13:51:29;9.70;99.90
52034;DHT22;38045;52.988;6.536;2023-04-24T13:53:55;9.80;99.90
52034;DHT22;38045;52.988;6.536;2023-04-24T13:56:21;9.80;99.90
52034;DHT22;38045;52.988;6.536;2023-04-24T13:58:48;9.80;99.90
52034;DHT22;38045;52.988;6.536;2023-04-24T14:01:13;9.80;99.90
52034;DHT22;38045;52.988;6.536;2023-04-24T14:03:40;9.80;99.90
52034;DHT22;38045;52.988;6.536;2023-04-24T14:06:06;9.80;99.90
52034;DHT22;38045;52.988;6.536;2023-04-24T14:08:32;9.80;99.90
52034;DHT22;38045;52.988;6.536;2023-04-24T14:10:57;9.70;99.90
52034;DHT22;38045;52.988;6.536;2023-04-24T14:13:23;9.60;99.90
52034;DHT22;38045;52.988;6.536;2023-04-24T14:15:49;9.60;99.90
52034;DHT22;38045;52.988;6.536;2023-04-24T14:18:15;9.60;99.90
52034;DHT22;38045;52.988;6.536;2023-04-24T14:20:40;9.60;99.90
52034;DHT22;38045;52.988;6.536;2023-04-24T14:23:06;9.60;99.90
52034;DHT22;38045;52.988;6.536;2023-04-24T14:25:31;9.50;99.90
52034;DHT22;38045;52.988;6.536;2023-04-24T14:27:57;9.40;99.90
52034;DHT22;38045;52.988;6.536;2023-04-24T14:30:22;9.40;99.90
52034;DHT22;38045;52.988;6.536;2023-04-24T14:32:48;9.40;99.90
52034;DHT22;38045;52.988;6.536;2023-04-24T14:35:15;9.40;99.90
52034;DHT22;38045;52.988;6.536;2023-04-24T14:37:40;9.40;99.90
52034;DHT22;38045;52.988;6.536;2023-04-24T14:40:07;9.40;99.90
52034;DHT22;38045;52.988;6.536;2023-04-24T14:42:33;9.30;99.90
52034;DHT22;38045;52.988;6.536;2023-04-24T14:44:59;9.20;99.90
52034;DHT22;38045;52.988;6.536;2023-04-24T14:47:25;9.20;99.90
52034;DHT22;38045;52.988;6.536;2023-04-24T14:49:51;9.20;99.90
52034;DHT22;38045;52.988;6.536;2023-04-24T14:52:17;9.10;99.90
52034;DHT22;38045;52.988;6.536;2023-04-24T14:54:43;9.20;99.90
52034;DHT22;38045;52.988;6.536;2023-04-24T14:57:09;9.10;99.90
52034;DHT22;38045;52.988;6.536;2023-04-24T14:59:34;9.10;99.90
52034;DHT22;38045;52.988;6.536;2023-04-24T15:02:00;9.10;99.90
52034;DHT22;38045;52.988;6.536;2023-04-24T15:04:27;9.20;99.90
52034;DHT22;38045;52.988;6.536;2023-04-24T15:06:54;9.10;99.90
52034;DHT22;38045;52.988;6.536;2023-04-24T15:09:21;9.00;99.90
52034;DHT22;38045;52.988;6.536;2023-04-24T15:11:47;8.80;99.90
52034;DHT22;38045;52.988;6.536;2023-04-24T15:14:14;8.80;99.90
52034;DHT22;38045;52.988;6.536;2023-04-24T15:16:40;8.70;99.90
52034;DHT22;38045;52.988;6.536;2023-04-24T15:19:05;8.70;99.90
52034;DHT22;38045;52.988;6.536;2023-04-24T15:21:31;8.70;99.90
52034;DHT22;38045;52.988;6.536;2023-04-24T15:23:57;8.60;99.90
52034;DHT22;38045;52.988;6.536;2023-04-24T15:26:23;8.70;99.90
52034;DHT22;38045;52.988;6.536;2023-04-24T15:28:49;8.70;99.90
52034;DHT22;38045;52.988;6.536;2023-04-24T15:31:15;8.80;99.90
52034;DHT22;38045;52.988;6.536;2023-04-24T15:33:41;8.80;99.90
52034;DHT22;38045;52.988;6.536;2023-04-24T15:36:06;8.80;99.90
52034;DHT22;38045;52.988;6.536;2023-04-24T15:38:32;8.90;99.90
52034;DHT22;38045;52.988;6.536;2023-04-24T15:40:58;9.00;99.90
52034;DHT22;38045;52.988;6.536;2023-04-24T15:43:23;9.00;99.90
52034;DHT22;38045;52.988;6.536;2023-04-24T15:45:49;9.00;99.90
52034;DHT22;38045;52.988;6.536;2023-04-24T15:48:15;9.00;99.90